sensor_id;sensor_type;location;lat;lon;timestamp;P1;durP1;ratioP1;P2;durP2;ratioP2
4616;SDS011;2321;42.704;23.384;2022-08-14T00:00:54;7.10;;;5.77;;
4616;SDS011;2321;42.704;23.384;2022-08-14T00:03:22;8.73;;;6.20;;
4616;SDS011;2321;42.704;23.384;2022-08-14T00:05:51;9.73;;;6.60;;
4616;SDS011;2321;42.704;23.384;2022-08-14T00:08:19;6.67;;;5.03;;
4616;SDS011;2321;42.704;23.384;2022-08-14T00:10:46;10.13;;;7.07;;
4616;SDS011;2321;42.704;23.384;2022-08-14T00:13:13;8.83;;;5.70;;
4616;SDS011;2321;42.704;23.384;2022-08-14T00:15:42;7.77;;;6.07;;
4616;SDS011;2321;42.704;23.384;2022-08-14T00:18:12;6.10;;;5.30;;
4616;SDS011;2321;42.704;23.384;2022-08-14T00:20:43;7.90;;;5.60;;
4616;SDS011;2321;42.704;23.384;2022-08-14T00:23:11;9.07;;;5.63;;
4616;SDS011;2321;42.704;23.384;2022-08-14T00:25:39;7.83;;;5.27;;
4616;SDS011;2321;42.704;23.384;2022-08-14T00:28:08;9.30;;;6.40;;
4616;SDS011;2321;42.704;23.384;2022-08-14T00:30:37;8.03;;;6.03;;
4616;SDS011;2321;42.704;23.384;2022-08-14T00:33:04;9.43;;;6.90;;
4616;SDS011;2321;42.704;23.384;2022-08-14T00:35:33;8.90;;;6.07;;
4616;SDS011;2321;42.704;23.384;2022-08-14T00:38:00;10.30;;;6.93;;
4616;SDS011;2321;42.704;23.384;2022-08-14T00:40:27;9.43;;;6.10;;
4616;SDS011;2321;42.704;23.384;2022-08-14T00:42:54;8.10;;;6.10;;
4616;SDS011;2321;42.704;23.384;2022-08-14T00:45:21;7.80;;;5.80;;
4616;SDS011;2321;42.704;23.384;2022-08-14T00:47:48;19.13;;;7.17;;
4616;SDS011;2321;42.704;23.384;2022-08-14T00:50:17;9.63;;;6.83;;
4616;SDS011;2321;42.704;23.384;2022-08-14T00:52:48;11.60;;;7.50;;
4616;SDS011;2321;42.704;23.384;2022-08-14T00:55:18;9.70;;;7.60;;
4616;SDS011;2321;42.704;23.384;2022-08-14T00:57:46;13.60;;;6.20;;
4616;SDS011;2321;42.704;23.384;2022-08-14T01:00:34;7.70;;;5.60;;
4616;SDS011;2321;42.704;23.384;2022-08-14T01:03:03;11.30;;;6.30;;
4616;SDS011;2321;42.704;23.384;2022-08-14T01:05:30;8.87;;;6.63;;
4616;SDS011;2321;42.704;23.384;2022-08-14T01:08:00;10.70;;;6.37;;
4616;SDS011;2321;42.704;23.384;2022-08-14T01:10:28;10.03;;;5.80;;
4616;SDS011;2321;42.704;23.384;2022-08-14T01:13:10;9.90;;;7.07;;
4616;SDS011;2321;42.704;23.384;2022-08-14T01:15:41;7.20;;;5.83;;
4616;SDS011;2321;42.704;23.384;2022-08-14T01:18:08;9.80;;;7.07;;
4616;SDS011;2321;42.704;23.384;2022-08-14T01:20:54;13.67;;;6.83;;
4616;SDS011;2321;42.704;23.384;2022-08-14T01:23:36;11.87;;;6.60;;
4616;SDS011;2321;42.704;23.384;2022-08-14T01:26:05;7.07;;;5.53;;
4616;SDS011;2321;42.704;23.384;2022-08-14T01:28:33;9.87;;;7.60;;
4616;SDS011;2321;42.704;23.384;2022-08-14T01:31:02;8.80;;;6.80;;
4616;SDS011;2321;42.704;23.384;2022-08-14T01:33:33;8.50;;;5.37;;
4616;SDS011;2321;42.704;23.384;2022-08-14T01:36:05;7.50;;;6.17;;
4616;SDS011;2321;42.704;23.384;2022-08-14T01:38:35;9.00;;;6.77;;
4616;SDS011;2321;42.704;23.384;2022-08-14T01:41:05;13.93;;;8.87;;
4616;SDS011;2321;42.704;23.384;2022-08-14T01:43:41;10.20;;;6.80;;
4616;SDS011;2321;42.704;23.384;2022-08-14T01:46:09;10.80;;;6.90;;
4616;SDS011;2321;42.704;23.384;2022-08-14T01:48:37;13.57;;;7.00;;
4616;SDS011;2321;42.704;23.384;2022-08-14T01:51:08;10.03;;;6.50;;
4616;SDS011;2321;42.704;23.384;2022-08-14T01:53:37;8.07;;;6.30;;
4616;SDS011;2321;42.704;23.384;2022-08-14T01:56:06;11.17;;;6.93;;
4616;SDS011;2321;42.704;23.384;2022-08-14T01:58:33;9.63;;;6.57;;
4616;SDS011;2321;42.704;23.384;2022-08-14T02:01:00;15.60;;;8.40;;
4616;SDS011;2321;42.704;23.384;2022-08-14T02:03:29;11.67;;;7.10;;
4616;SDS011;2321;42.704;23.384;2022-08-14T02:06:00;9.77;;;6.33;;
4616;SDS011;2321;42.704;23.384;2022-08-14T02:08:28;13.00;;;6.37;;
4616;SDS011;2321;42.704;23.384;2022-08-14T02:10:57;34.03;;;7.33;;
4616;SDS011;2321;42.704;23.384;2022-08-14T02:13:48;9.93;;;6.63;;
4616;SDS011;2321;42.704;23.384;2022-08-14T02:16:18;12.10;;;7.67;;
4616;SDS011;2321;42.704;23.384;2022-08-14T02:18:48;13.73;;;7.73;;
4616;SDS011;2321;42.704;23.384;2022-08-14T02:21:15;12.03;;;7.73;;
4616;SDS011;2321;42.704;23.384;2022-08-14T02:23:43;11.53;;;7.27;;
4616;SDS011;2321;42.704;23.384;2022-08-14T02:26:17;11.83;;;7.63;;
4616;SDS011;2321;42.704;23.384;2022-08-14T02:28:46;11.70;;;6.57;;
4616;SDS011;2321;42.704;23.384;2022-08-14T02:31:15;12.63;;;7.10;;
4616;SDS011;2321;42.704;23.384;2022-08-14T02:33:43;10.37;;;6.50;;
4616;SDS011;2321;42.704;23.384;2022-08-14T02:36:11;10.90;;;7.10;;
4616;SDS011;2321;42.704;23.384;2022-08-14T02:38:40;9.63;;;5.70;;
4616;SDS011;2321;42.704;23.384;2022-08-14T02:41:09;11.63;;;7.43;;
4616;SDS011;2321;42.704;23.384;2022-08-14T02:43:40;13.57;;;6.60;;
4616;SDS011;2321;42.704;23.384;2022-08-14T02:46:07;12.70;;;7.83;;
4616;SDS011;2321;42.704;23.384;2022-08-14T02:48:36;17.00;;;8.30;;
4616;SDS011;2321;42.704;23.384;2022-08-14T02:51:06;15.90;;;7.90;;
4616;SDS011;2321;42.704;23.384;2022-08-14T02:53:35;9.57;;;6.00;;
4616;SDS011;2321;42.704;23.384;2022-08-14T02:56:05;12.80;;;7.00;;
4616;SDS011;2321;42.704;23.384;2022-08-14T02:58:33;7.53;;;6.13;;
4616;SDS011;2321;42.704;23.384;2022-08-14T03:01:04;14.00;;;8.27;;
4616;SDS011;2321;42.704;23.384;2022-08-14T03:03:32;11.27;;;7.67;;
4616;SDS011;2321;42.704;23.384;2022-08-14T03:06:00;11.77;;;7.50;;
4616;SDS011;2321;42.704;23.384;2022-08-14T03:08:28;12.70;;;6.80;;
4616;SDS011;2321;42.704;23.384;2022-08-14T03:10:57;15.13;;;8.43;;
4616;SDS011;2321;42.704;23.384;2022-08-14T03:13:25;13.17;;;7.73;;
4616;SDS011;2321;42.704;23.384;2022-08-14T03:15:52;8.53;;;5.40;;
4616;SDS011;2321;42.704;23.384;2022-08-14T03:18:21;14.83;;;7.27;;
4616;SDS011;2321;42.704;23.384;2022-08-14T03:20:48;13.47;;;8.50;;
4616;SDS011;2321;42.704;23.384;2022-08-14T03:23:16;7.53;;;6.40;;
4616;SDS011;2321;42.704;23.384;2022-08-14T03:25:43;12.07;;;7.23;;
4616;SDS011;2321;42.704;23.384;2022-08-14T03:28:10;9.17;;;7.20;;
4616;SDS011;2321;42.704;23.384;2022-08-14T03:30:37;11.30;;;6.77;;
4616;SDS011;2321;42.704;23.384;2022-08-14T03:33:05;10.03;;;6.90;;
4616;SDS011;2321;42.704;23.384;2022-08-14T03:35:36;13.40;;;6.70;;
4616;SDS011;2321;42.704;23.384;2022-08-14T03:38:05;16.10;;;8.53;;
4616;SDS011;2321;42.704;23.384;2022-08-14T03:40:34;10.17;;;6.77;;
4616;SDS011;2321;42.704;23.384;2022-08-14T03:43:03;15.63;;;8.07;;
4616;SDS011;2321;42.704;23.384;2022-08-14T03:45:32;11.27;;;6.60;;
4616;SDS011;2321;42.704;23.384;2022-08-14T03:48:00;14.20;;;9.10;;
4616;SDS011;2321;42.704;23.384;2022-08-14T03:50:29;15.87;;;7.60;;
4616;SDS011;2321;42.704;23.384;2022-08-14T03:53:00;17.90;;;9.20;;
4616;SDS011;2321;42.704;23.384;2022-08-14T03:55:28;14.03;;;8.00;;
4616;SDS011;2321;42.704;23.384;2022-08-14T03:57:55;14.30;;;7.70;;
4616;SDS011;2321;42.704;23.384;2022-08-14T04:00:23;11.80;;;7.00;;
4616;SDS011;2321;42.704;23.384;2022-08-14T04:02:50;11.77;;;7.33;;
4616;SDS011;2321;42.704;23.384;2022-08-14T04:05:17;14.60;;;9.53;;
4616;SDS011;2321;42.704;23.384;2022-08-14T04:07:44;15.03;;;9.43;;
4616;SDS011;2321;42.704;23.384;2022-08-14T04:10:13;12.63;;;7.53;;
4616;SDS011;2321;42.704;23.384;2022-08-14T04:12:40;21.23;;;9.67;;
4616;SDS011;2321;42.704;23.384;2022-08-14T04:15:08;15.20;;;8.50;;
4616;SDS011;2321;42.704;23.384;2022-08-14T04:17:35;23.03;;;8.10;;
4616;SDS011;2321;42.704;23.384;2022-08-14T04:20:03;15.87;;;9.20;;
4616;SDS011;2321;42.704;23.384;2022-08-14T04:22:31;12.40;;;8.10;;
4616;SDS011;2321;42.704;23.384;2022-08-14T04:24:59;15.63;;;8.20;;
4616;SDS011;2321;42.704;23.384;2022-08-14T04:27:28;15.30;;;8.40;;
4616;SDS011;2321;42.704;23.384;2022-08-14T04:29:55;14.50;;;9.17;;
4616;SDS011;2321;42.704;23.384;2022-08-14T04:32:22;12.53;;;8.53;;
4616;SDS011;2321;42.704;23.384;2022-08-14T04:34:51;10.30;;;7.87;;
4616;SDS011;2321;42.704;23.384;2022-08-14T04:37:20;14.67;;;8.03;;
4616;SDS011;2321;42.704;23.384;2022-08-14T04:40:06;15.87;;;8.70;;
4616;SDS011;2321;42.704;23.384;2022-08-14T04:42:53;16.07;;;8.87;;
4616;SDS011;2321;42.704;23.384;2022-08-14T04:45:37;12.20;;;7.50;;
4616;SDS011;2321;42.704;23.384;2022-08-14T04:48:06;13.47;;;8.13;;
4616;SDS011;2321;42.704;23.384;2022-08-14T04:50:41;15.00;;;8.40;;
4616;SDS011;2321;42.704;23.384;2022-08-14T04:53:09;28.20;;;8.10;;
4616;SDS011;2321;42.704;23.384;2022-08-14T04:55:38;13.43;;;8.23;;
4616;SDS011;2321;42.704;23.384;2022-08-14T04:58:08;12.27;;;7.30;;
4616;SDS011;2321;42.704;23.384;2022-08-14T05:00:35;14.60;;;8.37;;
4616;SDS011;2321;42.704;23.384;2022-08-14T05:03:04;18.87;;;9.13;;
4616;SDS011;2321;42.704;23.384;2022-08-14T05:05:32;17.07;;;8.47;;
4616;SDS011;2321;42.704;23.384;2022-08-14T05:08:02;16.50;;;8.83;;
4616;SDS011;2321;42.704;23.384;2022-08-14T05:10:33;15.47;;;7.63;;
4616;SDS011;2321;42.704;23.384;2022-08-14T05:13:01;18.87;;;9.87;;
4616;SDS011;2321;42.704;23.384;2022-08-14T05:15:32;19.27;;;11.53;;
4616;SDS011;2321;42.704;23.384;2022-08-14T05:18:02;19.47;;;9.07;;
4616;SDS011;2321;42.704;23.384;2022-08-14T05:20:30;17.57;;;9.03;;
4616;SDS011;2321;42.704;23.384;2022-08-14T05:22:57;20.83;;;9.80;;
4616;SDS011;2321;42.704;23.384;2022-08-14T05:25:25;14.17;;;8.00;;
4616;SDS011;2321;42.704;23.384;2022-08-14T05:27:52;18.80;;;8.77;;
4616;SDS011;2321;42.704;23.384;2022-08-14T05:30:24;14.60;;;8.63;;
4616;SDS011;2321;42.704;23.384;2022-08-14T05:32:53;19.03;;;8.83;;
4616;SDS011;2321;42.704;23.384;2022-08-14T05:35:21;14.97;;;9.03;;
4616;SDS011;2321;42.704;23.384;2022-08-14T05:37:48;19.90;;;9.10;;
4616;SDS011;2321;42.704;23.384;2022-08-14T05:40:15;20.10;;;10.50;;
4616;SDS011;2321;42.704;23.384;2022-08-14T05:42:42;16.37;;;9.70;;
4616;SDS011;2321;42.704;23.384;2022-08-14T05:45:09;16.50;;;8.60;;
4616;SDS011;2321;42.704;23.384;2022-08-14T05:47:40;15.20;;;9.70;;
4616;SDS011;2321;42.704;23.384;2022-08-14T05:50:09;18.30;;;10.60;;
4616;SDS011;2321;42.704;23.384;2022-08-14T05:52:38;19.43;;;8.23;;
4616;SDS011;2321;42.704;23.384;2022-08-14T05:55:06;17.97;;;10.13;;
4616;SDS011;2321;42.704;23.384;2022-08-14T05:57:44;16.13;;;9.10;;
4616;SDS011;2321;42.704;23.384;2022-08-14T06:00:13;19.90;;;9.37;;
4616;SDS011;2321;42.704;23.384;2022-08-14T06:02:41;15.00;;;10.47;;
4616;SDS011;2321;42.704;23.384;2022-08-14T06:05:10;20.00;;;10.10;;
4616;SDS011;2321;42.704;23.384;2022-08-14T06:07:36;21.47;;;11.37;;
4616;SDS011;2321;42.704;23.384;2022-08-14T06:10:03;19.40;;;10.20;;
4616;SDS011;2321;42.704;23.384;2022-08-14T06:12:32;16.97;;;9.67;;
4616;SDS011;2321;42.704;23.384;2022-08-14T06:14:59;12.33;;;7.87;;
4616;SDS011;2321;42.704;23.384;2022-08-14T06:17:26;20.57;;;10.63;;
4616;SDS011;2321;42.704;23.384;2022-08-14T06:19:53;15.83;;;8.57;;
4616;SDS011;2321;42.704;23.384;2022-08-14T06:22:21;17.83;;;9.63;;
4616;SDS011;2321;42.704;23.384;2022-08-14T06:24:48;14.50;;;8.77;;
4616;SDS011;2321;42.704;23.384;2022-08-14T06:27:15;14.83;;;7.97;;
4616;SDS011;2321;42.704;23.384;2022-08-14T06:29:43;14.87;;;9.33;;
4616;SDS011;2321;42.704;23.384;2022-08-14T06:32:10;16.23;;;9.07;;
4616;SDS011;2321;42.704;23.384;2022-08-14T06:34:37;14.90;;;9.07;;
4616;SDS011;2321;42.704;23.384;2022-08-14T06:37:04;13.90;;;8.47;;
4616;SDS011;2321;42.704;23.384;2022-08-14T06:39:32;13.77;;;9.10;;
4616;SDS011;2321;42.704;23.384;2022-08-14T06:41:59;11.87;;;9.00;;
4616;SDS011;2321;42.704;23.384;2022-08-14T06:44:27;16.57;;;9.90;;
4616;SDS011;2321;42.704;23.384;2022-08-14T06:46:54;12.83;;;8.40;;
4616;SDS011;2321;42.704;23.384;2022-08-14T06:49:21;20.50;;;11.23;;
4616;SDS011;2321;42.704;23.384;2022-08-14T06:51:51;13.40;;;8.17;;
4616;SDS011;2321;42.704;23.384;2022-08-14T06:54:18;24.50;;;8.77;;
4616;SDS011;2321;42.704;23.384;2022-08-14T06:56:46;14.73;;;9.70;;
4616;SDS011;2321;42.704;23.384;2022-08-14T06:59:13;15.97;;;10.53;;
4616;SDS011;2321;42.704;23.384;2022-08-14T07:01:40;17.83;;;9.37;;
4616;SDS011;2321;42.704;23.384;2022-08-14T07:04:25;18.23;;;9.23;;
4616;SDS011;2321;42.704;23.384;2022-08-14T07:07:10;16.83;;;9.47;;
4616;SDS011;2321;42.704;23.384;2022-08-14T07:09:37;18.93;;;9.90;;
4616;SDS011;2321;42.704;23.384;2022-08-14T07:12:06;15.10;;;9.33;;
4616;SDS011;2321;42.704;23.384;2022-08-14T07:14:33;16.33;;;9.30;;
4616;SDS011;2321;42.704;23.384;2022-08-14T07:17:01;16.73;;;10.53;;
4616;SDS011;2321;42.704;23.384;2022-08-14T07:19:28;21.00;;;11.10;;
4616;SDS011;2321;42.704;23.384;2022-08-14T07:21:55;14.33;;;9.47;;
4616;SDS011;2321;42.704;23.384;2022-08-14T07:24:23;15.70;;;8.90;;
4616;SDS011;2321;42.704;23.384;2022-08-14T07:26:50;20.60;;;9.83;;
4616;SDS011;2321;42.704;23.384;2022-08-14T07:29:19;15.23;;;8.83;;
4616;SDS011;2321;42.704;23.384;2022-08-14T07:31:47;14.97;;;9.43;;
4616;SDS011;2321;42.704;23.384;2022-08-14T07:34:14;12.63;;;8.37;;
4616;SDS011;2321;42.704;23.384;2022-08-14T07:36:41;12.80;;;9.00;;
4616;SDS011;2321;42.704;23.384;2022-08-14T07:39:08;12.23;;;8.57;;
4616;SDS011;2321;42.704;23.384;2022-08-14T07:41:35;9.87;;;7.13;;
4616;SDS011;2321;42.704;23.384;2022-08-14T07:44:02;11.73;;;7.70;;
4616;SDS011;2321;42.704;23.384;2022-08-14T07:46:31;11.70;;;7.60;;
4616;SDS011;2321;42.704;23.384;2022-08-14T07:48:58;12.00;;;8.07;;
4616;SDS011;2321;42.704;23.384;2022-08-14T07:51:25;8.90;;;6.43;;
4616;SDS011;2321;42.704;23.384;2022-08-14T07:53:52;8.73;;;6.50;;
4616;SDS011;2321;42.704;23.384;2022-08-14T07:56:19;12.40;;;8.70;;
4616;SDS011;2321;42.704;23.384;2022-08-14T07:58:46;11.77;;;6.87;;
4616;SDS011;2321;42.704;23.384;2022-08-14T08:01:13;12.13;;;7.90;;
4616;SDS011;2321;42.704;23.384;2022-08-14T08:03:45;11.70;;;7.10;;
4616;SDS011;2321;42.704;23.384;2022-08-14T08:06:13;11.13;;;6.53;;
4616;SDS011;2321;42.704;23.384;2022-08-14T08:08:42;12.10;;;7.43;;
4616;SDS011;2321;42.704;23.384;2022-08-14T08:11:11;9.30;;;6.53;;
4616;SDS011;2321;42.704;23.384;2022-08-14T08:13:39;9.97;;;7.53;;
4616;SDS011;2321;42.704;23.384;2022-08-14T08:16:07;6.30;;;5.70;;
4616;SDS011;2321;42.704;23.384;2022-08-14T08:18:34;9.53;;;6.60;;
4616;SDS011;2321;42.704;23.384;2022-08-14T08:21:03;8.03;;;5.80;;
4616;SDS011;2321;42.704;23.384;2022-08-14T08:23:30;9.73;;;6.43;;
4616;SDS011;2321;42.704;23.384;2022-08-14T08:25:58;7.97;;;5.37;;
4616;SDS011;2321;42.704;23.384;2022-08-14T08:28:26;6.50;;;5.80;;
4616;SDS011;2321;42.704;23.384;2022-08-14T08:30:53;5.83;;;5.20;;
4616;SDS011;2321;42.704;23.384;2022-08-14T08:33:22;28.07;;;17.73;;
4616;SDS011;2321;42.704;23.384;2022-08-14T08:35:52;11.73;;;8.17;;
4616;SDS011;2321;42.704;23.384;2022-08-14T08:38:23;4.83;;;4.33;;
4616;SDS011;2321;42.704;23.384;2022-08-14T08:40:54;4.00;;;3.60;;
4616;SDS011;2321;42.704;23.384;2022-08-14T08:43:24;8.97;;;5.90;;
4616;SDS011;2321;42.704;23.384;2022-08-14T08:45:53;4.10;;;3.80;;
4616;SDS011;2321;42.704;23.384;2022-08-14T08:48:21;4.70;;;4.03;;
4616;SDS011;2321;42.704;23.384;2022-08-14T08:50:53;3.00;;;2.80;;
4616;SDS011;2321;42.704;23.384;2022-08-14T08:53:22;3.73;;;3.43;;
4616;SDS011;2321;42.704;23.384;2022-08-14T08:55:56;3.47;;;3.17;;
4616;SDS011;2321;42.704;23.384;2022-08-14T08:58:23;3.77;;;3.47;;
4616;SDS011;2321;42.704;23.384;2022-08-14T09:00:52;3.03;;;2.90;;
4616;SDS011;2321;42.704;23.384;2022-08-14T09:03:20;3.37;;;3.07;;
4616;SDS011;2321;42.704;23.384;2022-08-14T09:05:50;4.10;;;3.60;;
4616;SDS011;2321;42.704;23.384;2022-08-14T09:08:20;3.07;;;2.87;;
4616;SDS011;2321;42.704;23.384;2022-08-14T09:10:50;2.47;;;2.30;;
4616;SDS011;2321;42.704;23.384;2022-08-14T09:13:19;3.57;;;3.27;;
4616;SDS011;2321;42.704;23.384;2022-08-14T09:15:47;2.97;;;2.77;;
4616;SDS011;2321;42.704;23.384;2022-08-14T09:18:15;2.97;;;2.77;;
4616;SDS011;2321;42.704;23.384;2022-08-14T09:20:44;2.63;;;2.47;;
4616;SDS011;2321;42.704;23.384;2022-08-14T09:23:13;3.37;;;3.17;;
4616;SDS011;2321;42.704;23.384;2022-08-14T09:25:41;3.07;;;2.87;;
4616;SDS011;2321;42.704;23.384;2022-08-14T09:28:11;2.87;;;2.67;;
4616;SDS011;2321;42.704;23.384;2022-08-14T09:30:40;2.37;;;2.17;;
4616;SDS011;2321;42.704;23.384;2022-08-14T09:36:20;2.33;;;2.23;;
4616;SDS011;2321;42.704;23.384;2022-08-14T09:39:00;2.40;;;2.30;;
4616;SDS011;2321;42.704;23.384;2022-08-14T09:41:38;3.13;;;2.93;;
4616;SDS011;2321;42.704;23.384;2022-08-14T09:44:17;2.80;;;2.60;;
4616;SDS011;2321;42.704;23.384;2022-08-14T09:46:56;2.93;;;2.73;;
4616;SDS011;2321;42.704;23.384;2022-08-14T09:49:29;3.00;;;2.80;;
4616;SDS011;2321;42.704;23.384;2022-08-14T09:52:04;3.00;;;2.80;;
4616;SDS011;2321;42.704;23.384;2022-08-14T09:54:37;2.77;;;2.67;;
4616;SDS011;2321;42.704;23.384;2022-08-14T09:57:07;3.60;;;3.30;;
4616;SDS011;2321;42.704;23.384;2022-08-14T09:59:41;3.30;;;3.10;;
4616;SDS011;2321;42.704;23.384;2022-08-14T10:02:19;1.83;;;1.73;;
4616;SDS011;2321;42.704;23.384;2022-08-14T10:05:00;2.97;;;2.87;;
4616;SDS011;2321;42.704;23.384;2022-08-14T10:07:31;2.73;;;2.53;;
4616;SDS011;2321;42.704;23.384;2022-08-14T10:09:59;3.10;;;2.90;;
4616;SDS011;2321;42.704;23.384;2022-08-14T10:15:15;3.67;;;2.77;;
4616;SDS011;2321;42.704;23.384;2022-08-14T10:17:44;4.03;;;3.67;;
4616;SDS011;2321;42.704;23.384;2022-08-14T10:20:13;2.50;;;2.27;;
4616;SDS011;2321;42.704;23.384;2022-08-14T10:22:41;2.37;;;2.17;;
4616;SDS011;2321;42.704;23.384;2022-08-14T10:25:09;2.60;;;2.40;;
4616;SDS011;2321;42.704;23.384;2022-08-14T10:27:38;3.10;;;2.83;;
4616;SDS011;2321;42.704;23.384;2022-08-14T10:30:11;2.47;;;2.30;;
4616;SDS011;2321;42.704;23.384;2022-08-14T10:32:44;2.80;;;2.70;;
4616;SDS011;2321;42.704;23.384;2022-08-14T10:35:12;2.73;;;2.63;;
4616;SDS011;2321;42.704;23.384;2022-08-14T10:37:42;2.37;;;2.27;;
4616;SDS011;2321;42.704;23.384;2022-08-14T10:40:13;2.00;;;1.90;;
4616;SDS011;2321;42.704;23.384;2022-08-14T10:42:42;2.30;;;2.20;;
4616;SDS011;2321;42.704;23.384;2022-08-14T10:45:17;2.73;;;2.57;;
4616;SDS011;2321;42.704;23.384;2022-08-14T10:47:47;2.47;;;2.27;;
4616;SDS011;2321;42.704;23.384;2022-08-14T10:50:14;1.40;;;1.40;;
4616;SDS011;2321;42.704;23.384;2022-08-14T10:52:42;2.10;;;2.00;;
4616;SDS011;2321;42.704;23.384;2022-08-14T10:55:11;2.30;;;2.20;;
4616;SDS011;2321;42.704;23.384;2022-08-14T10:57:48;1.90;;;1.90;;
4616;SDS011;2321;42.704;23.384;2022-08-14T11:00:17;2.77;;;1.70;;
4616;SDS011;2321;42.704;23.384;2022-08-14T11:02:56;3.03;;;2.13;;
4616;SDS011;2321;42.704;23.384;2022-08-14T11:05:24;2.43;;;2.33;;
4616;SDS011;2321;42.704;23.384;2022-08-14T11:07:55;1.83;;;1.73;;
4616;SDS011;2321;42.704;23.384;2022-08-14T11:10:25;2.03;;;1.93;;
4616;SDS011;2321;42.704;23.384;2022-08-14T11:13:06;2.00;;;1.90;;
4616;SDS011;2321;42.704;23.384;2022-08-14T11:15:33;2.13;;;2.03;;
4616;SDS011;2321;42.704;23.384;2022-08-14T11:18:03;2.00;;;1.90;;
4616;SDS011;2321;42.704;23.384;2022-08-14T11:20:30;1.90;;;1.80;;
4616;SDS011;2321;42.704;23.384;2022-08-14T11:22:58;1.77;;;1.70;;
4616;SDS011;2321;42.704;23.384;2022-08-14T11:25:28;2.17;;;2.07;;
4616;SDS011;2321;42.704;23.384;2022-08-14T11:27:57;2.27;;;2.17;;
4616;SDS011;2321;42.704;23.384;2022-08-14T11:30:26;2.00;;;1.90;;
4616;SDS011;2321;42.704;23.384;2022-08-14T11:32:55;1.90;;;1.87;;
4616;SDS011;2321;42.704;23.384;2022-08-14T11:35:24;1.83;;;1.73;;
4616;SDS011;2321;42.704;23.384;2022-08-14T11:37:51;2.50;;;2.30;;
4616;SDS011;2321;42.704;23.384;2022-08-14T11:40:21;2.30;;;2.20;;
4616;SDS011;2321;42.704;23.384;2022-08-14T11:42:49;2.33;;;2.23;;
4616;SDS011;2321;42.704;23.384;2022-08-14T11:45:20;2.40;;;2.30;;
4616;SDS011;2321;42.704;23.384;2022-08-14T11:47:47;2.40;;;2.30;;
4616;SDS011;2321;42.704;23.384;2022-08-14T11:50:14;2.53;;;2.33;;
4616;SDS011;2321;42.704;23.384;2022-08-14T11:52:45;2.27;;;2.17;;
4616;SDS011;2321;42.704;23.384;2022-08-14T11:55:13;2.20;;;2.20;;
4616;SDS011;2321;42.704;23.384;2022-08-14T11:57:41;2.00;;;1.90;;
4616;SDS011;2321;42.704;23.384;2022-08-14T12:00:10;2.33;;;2.20;;
4616;SDS011;2321;42.704;23.384;2022-08-14T12:02:48;1.60;;;1.60;;
4616;SDS011;2321;42.704;23.384;2022-08-14T12:05:27;3.07;;;2.10;;
4616;SDS011;2321;42.704;23.384;2022-08-14T12:08:00;3.37;;;2.70;;
4616;SDS011;2321;42.704;23.384;2022-08-14T12:10:31;3.20;;;2.50;;
4616;SDS011;2321;42.704;23.384;2022-08-14T12:13:08;2.27;;;2.20;;
4616;SDS011;2321;42.704;23.384;2022-08-14T12:15:37;2.57;;;2.37;;
4616;SDS011;2321;42.704;23.384;2022-08-14T12:18:04;4.50;;;2.70;;
4616;SDS011;2321;42.704;23.384;2022-08-14T12:20:32;4.27;;;3.50;;
4616;SDS011;2321;42.704;23.384;2022-08-14T12:23:03;7.10;;;4.03;;
4616;SDS011;2321;42.704;23.384;2022-08-14T12:25:31;3.67;;;3.37;;
4616;SDS011;2321;42.704;23.384;2022-08-14T12:28:00;17.70;;;5.03;;
4616;SDS011;2321;42.704;23.384;2022-08-14T12:30:31;2.73;;;2.63;;
4616;SDS011;2321;42.704;23.384;2022-08-14T12:33:00;21.20;;;12.10;;
4616;SDS011;2321;42.704;23.384;2022-08-14T12:35:38;5.37;;;4.00;;
4616;SDS011;2321;42.704;23.384;2022-08-14T12:38:08;3.20;;;2.90;;
4616;SDS011;2321;42.704;23.384;2022-08-14T12:40:44;2.67;;;2.47;;
4616;SDS011;2321;42.704;23.384;2022-08-14T12:43:12;2.50;;;2.40;;
4616;SDS011;2321;42.704;23.384;2022-08-14T12:45:44;2.23;;;2.13;;
4616;SDS011;2321;42.704;23.384;2022-08-14T12:48:14;3.23;;;2.93;;
4616;SDS011;2321;42.704;23.384;2022-08-14T12:50:42;2.93;;;2.73;;
4616;SDS011;2321;42.704;23.384;2022-08-14T12:53:11;2.63;;;2.53;;
4616;SDS011;2321;42.704;23.384;2022-08-14T12:55:39;4.00;;;2.97;;
4616;SDS011;2321;42.704;23.384;2022-08-14T12:58:08;3.30;;;3.00;;
4616;SDS011;2321;42.704;23.384;2022-08-14T13:00:37;2.60;;;2.50;;
4616;SDS011;2321;42.704;23.384;2022-08-14T13:03:22;4.23;;;2.83;;
4616;SDS011;2321;42.704;23.384;2022-08-14T13:05:50;4.40;;;3.93;;
4616;SDS011;2321;42.704;23.384;2022-08-14T13:08:19;4.00;;;3.70;;
4616;SDS011;2321;42.704;23.384;2022-08-14T13:10:47;4.67;;;4.33;;
4616;SDS011;2321;42.704;23.384;2022-08-14T13:13:15;4.87;;;3.80;;
4616;SDS011;2321;42.704;23.384;2022-08-14T13:15:43;3.20;;;3.00;;
4616;SDS011;2321;42.704;23.384;2022-08-14T13:18:12;4.37;;;4.03;;
4616;SDS011;2321;42.704;23.384;2022-08-14T13:20:41;4.77;;;4.37;;
4616;SDS011;2321;42.704;23.384;2022-08-14T13:23:10;3.90;;;3.60;;
4616;SDS011;2321;42.704;23.384;2022-08-14T13:25:43;4.30;;;3.83;;
4616;SDS011;2321;42.704;23.384;2022-08-14T13:28:11;7.30;;;4.00;;
4616;SDS011;2321;42.704;23.384;2022-08-14T13:30:39;4.23;;;3.83;;
4616;SDS011;2321;42.704;23.384;2022-08-14T13:33:10;3.53;;;3.23;;
4616;SDS011;2321;42.704;23.384;2022-08-14T13:35:39;3.70;;;3.23;;
4616;SDS011;2321;42.704;23.384;2022-08-14T13:38:10;2.57;;;2.47;;
4616;SDS011;2321;42.704;23.384;2022-08-14T13:40:37;3.93;;;3.60;;
4616;SDS011;2321;42.704;23.384;2022-08-14T13:43:06;3.90;;;3.43;;
4616;SDS011;2321;42.704;23.384;2022-08-14T13:45:34;4.40;;;3.93;;
4616;SDS011;2321;42.704;23.384;2022-08-14T13:48:01;3.60;;;3.30;;
4616;SDS011;2321;42.704;23.384;2022-08-14T13:50:28;3.70;;;3.40;;
4616;SDS011;2321;42.704;23.384;2022-08-14T13:52:55;5.03;;;3.57;;
4616;SDS011;2321;42.704;23.384;2022-08-14T13:55:26;4.23;;;3.90;;
4616;SDS011;2321;42.704;23.384;2022-08-14T13:57:56;4.70;;;4.30;;
4616;SDS011;2321;42.704;23.384;2022-08-14T14:00:27;6.30;;;4.33;;
4616;SDS011;2321;42.704;23.384;2022-08-14T14:02:57;4.60;;;4.20;;
4616;SDS011;2321;42.704;23.384;2022-08-14T14:05:25;4.80;;;4.30;;
4616;SDS011;2321;42.704;23.384;2022-08-14T14:07:53;3.97;;;3.57;;
4616;SDS011;2321;42.704;23.384;2022-08-14T14:10:21;3.97;;;3.67;;
4616;SDS011;2321;42.704;23.384;2022-08-14T14:12:48;3.77;;;3.47;;
4616;SDS011;2321;42.704;23.384;2022-08-14T14:15:16;4.07;;;3.67;;
4616;SDS011;2321;42.704;23.384;2022-08-14T14:17:45;4.30;;;3.90;;
4616;SDS011;2321;42.704;23.384;2022-08-14T14:20:15;3.40;;;3.20;;
4616;SDS011;2321;42.704;23.384;2022-08-14T14:22:44;4.03;;;3.60;;
4616;SDS011;2321;42.704;23.384;2022-08-14T14:25:12;3.57;;;3.30;;
4616;SDS011;2321;42.704;23.384;2022-08-14T14:27:41;3.50;;;3.30;;
4616;SDS011;2321;42.704;23.384;2022-08-14T14:30:09;3.40;;;3.20;;
4616;SDS011;2321;42.704;23.384;2022-08-14T14:32:38;4.90;;;4.50;;
4616;SDS011;2321;42.704;23.384;2022-08-14T14:35:10;5.07;;;4.60;;
4616;SDS011;2321;42.704;23.384;2022-08-14T14:37:39;4.57;;;4.17;;
4616;SDS011;2321;42.704;23.384;2022-08-14T14:40:08;6.90;;;3.80;;
4616;SDS011;2321;42.704;23.384;2022-08-14T14:42:40;5.30;;;4.43;;
4616;SDS011;2321;42.704;23.384;2022-08-14T14:45:13;3.40;;;3.10;;
4616;SDS011;2321;42.704;23.384;2022-08-14T14:47:44;3.37;;;3.07;;
4616;SDS011;2321;42.704;23.384;2022-08-14T14:50:13;3.80;;;3.50;;
4616;SDS011;2321;42.704;23.384;2022-08-14T14:52:40;5.00;;;3.50;;
4616;SDS011;2321;42.704;23.384;2022-08-14T14:55:07;3.17;;;2.97;;
4616;SDS011;2321;42.704;23.384;2022-08-14T14:57:37;5.07;;;2.80;;
4616;SDS011;2321;42.704;23.384;2022-08-14T15:00:05;6.23;;;3.20;;
4616;SDS011;2321;42.704;23.384;2022-08-14T15:02:37;2.97;;;2.80;;
4616;SDS011;2321;42.704;23.384;2022-08-14T15:05:06;2.63;;;2.43;;
4616;SDS011;2321;42.704;23.384;2022-08-14T15:07:36;5.17;;;2.77;;
4616;SDS011;2321;42.704;23.384;2022-08-14T15:10:04;2.33;;;2.23;;
4616;SDS011;2321;42.704;23.384;2022-08-14T15:12:32;3.43;;;2.60;;
4616;SDS011;2321;42.704;23.384;2022-08-14T15:14:59;3.00;;;2.80;;